KCLL/CLL METAR and TAF weather

Enter ICAO airport designator
Station Type Date Time Source
KCLL METAR 2022/11/30 16:53 UTC NOAA

KCLL 301653Z 36015G20KT 10SM CLR 12/M01 A3037 RMK AO2 SLP283 T01171011


Station Type Date Time Source
KCLL Decoded METAR 2022/11/30 16:53 UTC NOAA

COLLEGE STN EASTERWOOD FIELD, TX, United States (KCLL) 30-35N 096-22W 96M
Nov 30, 2022 - 11:53 AM EST / 2022.11.30 1653 UTC
Wind: from the N (360 degrees) at 17 MPH (15 KT) gusting to 23 MPH (20 KT):0
Visibility: 10 mile(s):0
Sky conditions: clear
Temperature: 53.1 F (11.7 C)
Dew Point: 30.0 F (-1.1 C)
Relative Humidity: 41%
Pressure (altimeter): 30.37 in. Hg (1028 hPa)
ob: KCLL 301653Z 36015G20KT 10SM CLR 12/M01 A3037 RMK AO2 SLP283 T01171011
cycle: 17

Station Type Date Time Source
KCLL TAF 2022/11/30 18:24 UTC NOAA

TAF KCLL 301723Z 3018/0118 02014G24KT P6SM SKC
FM010100 02009KT P6SM SKC
FM010600 04005KT P6SM SKC
FM011500 08007KT P6SM SKC

Example: see airport list